sensor_id;sensor_type;location;lat;lon;timestamp;temperature;humidity
22319;DHT22;11327;52.334;9.506;2023-06-26T00:00:16;21.30;99.90
22319;DHT22;11327;52.334;9.506;2023-06-26T00:03:37;21.30;99.90
22319;DHT22;11327;52.334;9.506;2023-06-26T00:06:57;21.20;99.90
22319;DHT22;11327;52.334;9.506;2023-06-26T00:10:18;21.20;99.90
22319;DHT22;11327;52.334;9.506;2023-06-26T00:13:39;21.20;99.90
22319;DHT22;11327;52.334;9.506;2023-06-26T00:16:59;21.20;99.90
22319;DHT22;11327;52.334;9.506;2023-06-26T00:20:20;21.10;99.90
22319;DHT22;11327;52.334;9.506;2023-06-26T00:23:41;21.10;99.90
22319;DHT22;11327;52.334;9.506;2023-06-26T00:27:01;21.10;99.90
22319;DHT22;11327;52.334;9.506;2023-06-26T00:30:22;21.10;99.90
22319;DHT22;11327;52.334;9.506;2023-06-26T00:33:43;21.00;99.90
22319;DHT22;11327;52.334;9.506;2023-06-26T00:37:04;20.90;99.90
22319;DHT22;11327;52.334;9.506;2023-06-26T00:40:24;20.90;99.90
22319;DHT22;11327;52.334;9.506;2023-06-26T00:43:47;20.90;99.90
22319;DHT22;11327;52.334;9.506;2023-06-26T00:47:08;20.90;99.90
22319;DHT22;11327;52.334;9.506;2023-06-26T00:50:29;20.80;99.90
22319;DHT22;11327;52.334;9.506;2023-06-26T00:53:50;20.80;99.90
22319;DHT22;11327;52.334;9.506;2023-06-26T00:57:11;20.80;99.90
22319;DHT22;11327;52.334;9.506;2023-06-26T01:00:33;20.80;99.90
22319;DHT22;11327;52.334;9.506;2023-06-26T01:03:54;20.80;99.90
22319;DHT22;11327;52.334;9.506;2023-06-26T01:07:16;20.70;99.90
22319;DHT22;11327;52.334;9.506;2023-06-26T01:10:39;20.70;99.90
22319;DHT22;11327;52.334;9.506;2023-06-26T01:14:01;20.70;99.90
22319;DHT22;11327;52.334;9.506;2023-06-26T01:17:22;20.60;99.90
22319;DHT22;11327;52.334;9.506;2023-06-26T01:20:43;20.40;99.90
22319;DHT22;11327;52.334;9.506;2023-06-26T01:27:33;20.50;99.90
22319;DHT22;11327;52.334;9.506;2023-06-26T01:30:54;20.50;99.90
22319;DHT22;11327;52.334;9.506;2023-06-26T01:34:17;20.40;99.90
22319;DHT22;11327;52.334;9.506;2023-06-26T01:37:38;20.40;99.90
22319;DHT22;11327;52.334;9.506;2023-06-26T01:40:59;20.30;99.90
22319;DHT22;11327;52.334;9.506;2023-06-26T01:44:31;20.20;99.90
22319;DHT22;11327;52.334;9.506;2023-06-26T01:47:53;20.20;99.90
22319;DHT22;11327;52.334;9.506;2023-06-26T01:51:17;20.20;99.90
22319;DHT22;11327;52.334;9.506;2023-06-26T01:58:09;20.10;99.90
22319;DHT22;11327;52.334;9.506;2023-06-26T02:01:30;20.10;99.90
22319;DHT22;11327;52.334;9.506;2023-06-26T02:04:53;20.10;99.90
22319;DHT22;11327;52.334;9.506;2023-06-26T02:08:14;20.00;99.90
22319;DHT22;11327;52.334;9.506;2023-06-26T02:11:35;19.90;99.90
22319;DHT22;11327;52.334;9.506;2023-06-26T02:14:56;20.00;99.90
22319;DHT22;11327;52.334;9.506;2023-06-26T02:18:17;20.10;99.90
22319;DHT22;11327;52.334;9.506;2023-06-26T02:21:38;20.00;99.90
22319;DHT22;11327;52.334;9.506;2023-06-26T02:24:59;20.00;99.90
22319;DHT22;11327;52.334;9.506;2023-06-26T02:28:19;20.00;99.90
22319;DHT22;11327;52.334;9.506;2023-06-26T02:31:40;20.00;99.90
22319;DHT22;11327;52.334;9.506;2023-06-26T02:35:03;20.00;99.90
22319;DHT22;11327;52.334;9.506;2023-06-26T02:38:24;20.00;99.90
22319;DHT22;11327;52.334;9.506;2023-06-26T02:41:45;20.10;99.90
22319;DHT22;11327;52.334;9.506;2023-06-26T02:45:07;20.00;99.90
22319;DHT22;11327;52.334;9.506;2023-06-26T02:48:30;20.10;99.90
22319;DHT22;11327;52.334;9.506;2023-06-26T02:51:51;20.10;99.90
22319;DHT22;11327;52.334;9.506;2023-06-26T02:55:11;20.10;99.90
22319;DHT22;11327;52.334;9.506;2023-06-26T02:58:32;20.20;99.90
22319;DHT22;11327;52.334;9.506;2023-06-26T03:01:53;20.20;99.90
22319;DHT22;11327;52.334;9.506;2023-06-26T03:05:13;20.20;99.90
22319;DHT22;11327;52.334;9.506;2023-06-26T03:08:36;20.30;99.90
22319;DHT22;11327;52.334;9.506;2023-06-26T03:11:58;20.30;99.90
22319;DHT22;11327;52.334;9.506;2023-06-26T03:15:19;20.40;99.90
22319;DHT22;11327;52.334;9.506;2023-06-26T03:18:39;20.50;99.90
22319;DHT22;11327;52.334;9.506;2023-06-26T03:22:00;20.60;99.90
22319;DHT22;11327;52.334;9.506;2023-06-26T03:25:21;20.70;99.90
22319;DHT22;11327;52.334;9.506;2023-06-26T03:28:42;20.70;99.90
22319;DHT22;11327;52.334;9.506;2023-06-26T03:32:03;20.80;99.90
22319;DHT22;11327;52.334;9.506;2023-06-26T03:35:24;20.80;99.90
22319;DHT22;11327;52.334;9.506;2023-06-26T03:38:45;20.80;99.90
22319;DHT22;11327;52.334;9.506;2023-06-26T03:42:06;20.70;99.90
22319;DHT22;11327;52.334;9.506;2023-06-26T03:45:27;20.70;99.90
22319;DHT22;11327;52.334;9.506;2023-06-26T03:48:48;20.80;99.90
22319;DHT22;11327;52.334;9.506;2023-06-26T03:52:09;20.80;99.90
22319;DHT22;11327;52.334;9.506;2023-06-26T03:55:29;20.90;99.90
22319;DHT22;11327;52.334;9.506;2023-06-26T03:58:50;21.00;99.90
22319;DHT22;11327;52.334;9.506;2023-06-26T04:02:11;21.00;99.90
22319;DHT22;11327;52.334;9.506;2023-06-26T04:05:33;21.10;99.90
22319;DHT22;11327;52.334;9.506;2023-06-26T04:08:53;21.10;99.90
22319;DHT22;11327;52.334;9.506;2023-06-26T04:12:14;21.10;99.90
22319;DHT22;11327;52.334;9.506;2023-06-26T04:15:35;21.20;99.90
22319;DHT22;11327;52.334;9.506;2023-06-26T04:18:55;21.20;99.90
22319;DHT22;11327;52.334;9.506;2023-06-26T04:22:16;21.20;99.90
22319;DHT22;11327;52.334;9.506;2023-06-26T04:25:37;21.30;99.90
22319;DHT22;11327;52.334;9.506;2023-06-26T04:28:58;21.30;99.90
22319;DHT22;11327;52.334;9.506;2023-06-26T04:32:19;21.40;99.90
22319;DHT22;11327;52.334;9.506;2023-06-26T04:35:40;21.40;99.90
22319;DHT22;11327;52.334;9.506;2023-06-26T04:39:01;21.40;99.90
22319;DHT22;11327;52.334;9.506;2023-06-26T04:42:22;21.40;99.90
22319;DHT22;11327;52.334;9.506;2023-06-26T04:45:43;21.40;99.90
22319;DHT22;11327;52.334;9.506;2023-06-26T04:49:03;21.50;99.90
22319;DHT22;11327;52.334;9.506;2023-06-26T04:52:24;21.50;99.90
22319;DHT22;11327;52.334;9.506;2023-06-26T04:55:45;21.60;99.90
22319;DHT22;11327;52.334;9.506;2023-06-26T04:59:06;21.60;99.90
22319;DHT22;11327;52.334;9.506;2023-06-26T05:02:27;21.70;99.90
22319;DHT22;11327;52.334;9.506;2023-06-26T05:05:47;21.80;99.90
22319;DHT22;11327;52.334;9.506;2023-06-26T05:09:08;21.90;99.90
22319;DHT22;11327;52.334;9.506;2023-06-26T05:12:31;22.00;99.90
22319;DHT22;11327;52.334;9.506;2023-06-26T05:15:52;22.00;99.90
22319;DHT22;11327;52.334;9.506;2023-06-26T05:19:13;22.10;99.90
22319;DHT22;11327;52.334;9.506;2023-06-26T05:22:34;22.20;99.90
22319;DHT22;11327;52.334;9.506;2023-06-26T05:25:56;22.20;99.90
22319;DHT22;11327;52.334;9.506;2023-06-26T05:29:17;22.20;99.90
22319;DHT22;11327;52.334;9.506;2023-06-26T05:32:40;22.20;99.90
22319;DHT22;11327;52.334;9.506;2023-06-26T05:36:03;22.20;99.90
22319;DHT22;11327;52.334;9.506;2023-06-26T05:39:24;22.20;99.90
22319;DHT22;11327;52.334;9.506;2023-06-26T05:42:46;22.20;99.90
22319;DHT22;11327;52.334;9.506;2023-06-26T05:46:06;22.30;99.90
22319;DHT22;11327;52.334;9.506;2023-06-26T05:49:27;22.40;99.90
22319;DHT22;11327;52.334;9.506;2023-06-26T05:52:48;22.60;99.90
22319;DHT22;11327;52.334;9.506;2023-06-26T05:56:10;22.70;99.90
22319;DHT22;11327;52.334;9.506;2023-06-26T05:59:31;22.80;99.90
22319;DHT22;11327;52.334;9.506;2023-06-26T06:02:52;22.90;99.90
22319;DHT22;11327;52.334;9.506;2023-06-26T06:06:14;23.00;99.90
22319;DHT22;11327;52.334;9.506;2023-06-26T06:09:36;23.10;99.90
22319;DHT22;11327;52.334;9.506;2023-06-26T06:12:58;23.20;99.90
22319;DHT22;11327;52.334;9.506;2023-06-26T06:16:18;23.40;99.90
22319;DHT22;11327;52.334;9.506;2023-06-26T06:19:39;23.50;99.90
22319;DHT22;11327;52.334;9.506;2023-06-26T06:23:00;23.50;99.90
22319;DHT22;11327;52.334;9.506;2023-06-26T06:26:21;23.50;99.90
22319;DHT22;11327;52.334;9.506;2023-06-26T06:29:41;23.60;99.90
22319;DHT22;11327;52.334;9.506;2023-06-26T06:33:02;23.70;99.90
22319;DHT22;11327;52.334;9.506;2023-06-26T06:36:23;23.70;99.90
22319;DHT22;11327;52.334;9.506;2023-06-26T06:39:44;23.80;99.90
22319;DHT22;11327;52.334;9.506;2023-06-26T06:43:04;24.00;99.90
22319;DHT22;11327;52.334;9.506;2023-06-26T06:46:25;24.10;99.90
22319;DHT22;11327;52.334;9.506;2023-06-26T06:49:47;24.30;99.90
22319;DHT22;11327;52.334;9.506;2023-06-26T06:53:08;24.50;99.90
22319;DHT22;11327;52.334;9.506;2023-06-26T06:56:28;24.60;99.90
22319;DHT22;11327;52.334;9.506;2023-06-26T06:59:49;24.80;99.90
22319;DHT22;11327;52.334;9.506;2023-06-26T07:03:10;24.90;99.90
22319;DHT22;11327;52.334;9.506;2023-06-26T07:06:31;25.00;99.90
22319;DHT22;11327;52.334;9.506;2023-06-26T07:09:51;25.00;99.90
22319;DHT22;11327;52.334;9.506;2023-06-26T07:13:12;25.10;99.90
22319;DHT22;11327;52.334;9.506;2023-06-26T07:16:33;25.20;99.90
22319;DHT22;11327;52.334;9.506;2023-06-26T07:19:54;25.30;99.90
22319;DHT22;11327;52.334;9.506;2023-06-26T07:23:14;25.30;99.90
22319;DHT22;11327;52.334;9.506;2023-06-26T07:26:35;25.40;99.90
22319;DHT22;11327;52.334;9.506;2023-06-26T07:29:56;25.50;99.90
22319;DHT22;11327;52.334;9.506;2023-06-26T07:33:16;25.60;99.90
22319;DHT22;11327;52.334;9.506;2023-06-26T07:36:37;25.60;99.90
22319;DHT22;11327;52.334;9.506;2023-06-26T07:39:58;25.90;99.90
22319;DHT22;11327;52.334;9.506;2023-06-26T07:43:18;25.90;99.90
22319;DHT22;11327;52.334;9.506;2023-06-26T07:46:39;26.00;99.90
22319;DHT22;11327;52.334;9.506;2023-06-26T07:50:00;26.10;99.90
22319;DHT22;11327;52.334;9.506;2023-06-26T07:53:21;26.20;99.90
22319;DHT22;11327;52.334;9.506;2023-06-26T07:56:59;26.20;99.90
22319;DHT22;11327;52.334;9.506;2023-06-26T08:00:20;26.30;99.90
22319;DHT22;11327;52.334;9.506;2023-06-26T08:03:41;26.40;99.90
22319;DHT22;11327;52.334;9.506;2023-06-26T08:07:02;26.50;99.90
22319;DHT22;11327;52.334;9.506;2023-06-26T08:10:24;26.50;99.90
22319;DHT22;11327;52.334;9.506;2023-06-26T08:13:44;26.60;99.90
22319;DHT22;11327;52.334;9.506;2023-06-26T08:17:05;26.70;99.90
22319;DHT22;11327;52.334;9.506;2023-06-26T08:20:26;26.70;99.90
22319;DHT22;11327;52.334;9.506;2023-06-26T08:23:46;26.80;99.90
22319;DHT22;11327;52.334;9.506;2023-06-26T08:27:07;26.80;99.90
22319;DHT22;11327;52.334;9.506;2023-06-26T08:30:28;26.70;99.90
22319;DHT22;11327;52.334;9.506;2023-06-26T08:33:49;26.50;99.90
22319;DHT22;11327;52.334;9.506;2023-06-26T08:37:09;26.40;99.90
22319;DHT22;11327;52.334;9.506;2023-06-26T08:40:31;26.40;99.90
22319;DHT22;11327;52.334;9.506;2023-06-26T08:43:52;26.40;99.90
22319;DHT22;11327;52.334;9.506;2023-06-26T08:47:13;26.50;99.90
22319;DHT22;11327;52.334;9.506;2023-06-26T08:50:35;26.60;99.90
22319;DHT22;11327;52.334;9.506;2023-06-26T08:53:57;26.80;99.90
22319;DHT22;11327;52.334;9.506;2023-06-26T08:57:19;26.90;99.90
22319;DHT22;11327;52.334;9.506;2023-06-26T09:00:41;27.00;99.90
22319;DHT22;11327;52.334;9.506;2023-06-26T09:04:02;27.10;99.90
22319;DHT22;11327;52.334;9.506;2023-06-26T09:07:23;27.00;99.90
22319;DHT22;11327;52.334;9.506;2023-06-26T09:10:44;27.20;99.90
22319;DHT22;11327;52.334;9.506;2023-06-26T09:14:05;27.00;99.90
22319;DHT22;11327;52.334;9.506;2023-06-26T09:17:30;27.00;99.90
22319;DHT22;11327;52.334;9.506;2023-06-26T09:20:50;26.90;99.90
22319;DHT22;11327;52.334;9.506;2023-06-26T09:24:12;26.90;99.90
22319;DHT22;11327;52.334;9.506;2023-06-26T09:27:33;27.00;99.90
22319;DHT22;11327;52.334;9.506;2023-06-26T09:30:54;26.80;99.90
22319;DHT22;11327;52.334;9.506;2023-06-26T09:34:15;26.60;99.90
22319;DHT22;11327;52.334;9.506;2023-06-26T09:37:36;26.50;99.90
22319;DHT22;11327;52.334;9.506;2023-06-26T09:40:57;26.40;99.90
22319;DHT22;11327;52.334;9.506;2023-06-26T09:44:18;26.20;99.90
22319;DHT22;11327;52.334;9.506;2023-06-26T09:47:40;26.20;99.90
22319;DHT22;11327;52.334;9.506;2023-06-26T09:51:03;26.20;99.90
22319;DHT22;11327;52.334;9.506;2023-06-26T09:54:24;26.00;99.90
22319;DHT22;11327;52.334;9.506;2023-06-26T09:57:47;25.90;99.90
22319;DHT22;11327;52.334;9.506;2023-06-26T10:01:08;25.80;99.90
22319;DHT22;11327;52.334;9.506;2023-06-26T10:04:30;25.60;99.90
22319;DHT22;11327;52.334;9.506;2023-06-26T10:07:52;25.30;99.90
22319;DHT22;11327;52.334;9.506;2023-06-26T10:11:16;25.10;99.90
22319;DHT22;11327;52.334;9.506;2023-06-26T10:14:37;24.80;99.90
22319;DHT22;11327;52.334;9.506;2023-06-26T10:18:00;24.40;99.90
22319;DHT22;11327;52.334;9.506;2023-06-26T10:21:22;24.20;99.90
22319;DHT22;11327;52.334;9.506;2023-06-26T10:24:45;23.90;99.90
22319;DHT22;11327;52.334;9.506;2023-06-26T10:28:07;23.70;99.90
22319;DHT22;11327;52.334;9.506;2023-06-26T10:31:29;23.60;99.90
22319;DHT22;11327;52.334;9.506;2023-06-26T10:34:51;23.80;99.90
22319;DHT22;11327;52.334;9.506;2023-06-26T10:38:12;23.90;99.90
22319;DHT22;11327;52.334;9.506;2023-06-26T10:41:42;23.90;99.90
22319;DHT22;11327;52.334;9.506;2023-06-26T10:45:19;23.90;99.90
22319;DHT22;11327;52.334;9.506;2023-06-26T10:48:58;23.90;99.90
22319;DHT22;11327;52.334;9.506;2023-06-26T10:52:20;23.80;99.90
22319;DHT22;11327;52.334;9.506;2023-06-26T10:55:42;23.80;99.90
22319;DHT22;11327;52.334;9.506;2023-06-26T10:59:24;23.70;99.90
22319;DHT22;11327;52.334;9.506;2023-06-26T11:02:49;23.70;99.90
22319;DHT22;11327;52.334;9.506;2023-06-26T11:06:11;23.80;99.90
22319;DHT22;11327;52.334;9.506;2023-06-26T11:09:34;23.80;99.90
22319;DHT22;11327;52.334;9.506;2023-06-26T11:12:57;23.90;99.90
22319;DHT22;11327;52.334;9.506;2023-06-26T11:16:18;23.90;99.90
22319;DHT22;11327;52.334;9.506;2023-06-26T11:19:41;24.10;99.90
22319;DHT22;11327;52.334;9.506;2023-06-26T11:23:04;24.10;99.90
22319;DHT22;11327;52.334;9.506;2023-06-26T11:26:27;24.10;99.90
22319;DHT22;11327;52.334;9.506;2023-06-26T11:29:48;24.20;99.90
22319;DHT22;11327;52.334;9.506;2023-06-26T11:33:10;24.30;99.90
22319;DHT22;11327;52.334;9.506;2023-06-26T11:36:31;24.70;99.90
22319;DHT22;11327;52.334;9.506;2023-06-26T11:39:52;24.90;99.90
22319;DHT22;11327;52.334;9.506;2023-06-26T11:43:13;24.90;99.90
22319;DHT22;11327;52.334;9.506;2023-06-26T11:46:36;24.90;99.90
22319;DHT22;11327;52.334;9.506;2023-06-26T11:49:56;24.60;99.90
22319;DHT22;11327;52.334;9.506;2023-06-26T11:53:17;24.50;99.90
22319;DHT22;11327;52.334;9.506;2023-06-26T11:56:38;24.10;99.90
22319;DHT22;11327;52.334;9.506;2023-06-26T12:00:10;23.90;99.90
22319;DHT22;11327;52.334;9.506;2023-06-26T12:03:32;23.90;99.90
22319;DHT22;11327;52.334;9.506;2023-06-26T12:06:53;23.90;99.90
22319;DHT22;11327;52.334;9.506;2023-06-26T12:10:18;24.30;99.90
22319;DHT22;11327;52.334;9.506;2023-06-26T12:13:39;24.70;99.90
22319;DHT22;11327;52.334;9.506;2023-06-26T12:17:11;25.10;99.90
22319;DHT22;11327;52.334;9.506;2023-06-26T12:20:32;25.30;99.90
22319;DHT22;11327;52.334;9.506;2023-06-26T12:23:58;25.20;99.90
22319;DHT22;11327;52.334;9.506;2023-06-26T12:27:20;25.00;99.90
22319;DHT22;11327;52.334;9.506;2023-06-26T12:30:45;25.00;99.90
22319;DHT22;11327;52.334;9.506;2023-06-26T12:34:10;25.00;99.90
22319;DHT22;11327;52.334;9.506;2023-06-26T12:37:37;25.00;99.90
22319;DHT22;11327;52.334;9.506;2023-06-26T12:41:00;25.00;99.90
22319;DHT22;11327;52.334;9.506;2023-06-26T12:44:22;25.10;99.90
22319;DHT22;11327;52.334;9.506;2023-06-26T12:47:43;25.10;99.90
22319;DHT22;11327;52.334;9.506;2023-06-26T12:51:10;25.20;99.90
22319;DHT22;11327;52.334;9.506;2023-06-26T12:54:33;25.20;99.90
22319;DHT22;11327;52.334;9.506;2023-06-26T12:57:54;25.20;99.90
22319;DHT22;11327;52.334;9.506;2023-06-26T13:01:14;25.10;99.90
22319;DHT22;11327;52.334;9.506;2023-06-26T13:04:35;25.10;99.90
22319;DHT22;11327;52.334;9.506;2023-06-26T13:07:56;25.00;99.90
22319;DHT22;11327;52.334;9.506;2023-06-26T13:11:18;25.00;99.90
22319;DHT22;11327;52.334;9.506;2023-06-26T13:14:38;25.00;99.90
22319;DHT22;11327;52.334;9.506;2023-06-26T13:17:59;25.10;99.90
22319;DHT22;11327;52.334;9.506;2023-06-26T13:21:20;25.00;99.90
22319;DHT22;11327;52.334;9.506;2023-06-26T13:24:41;25.20;99.90
22319;DHT22;11327;52.334;9.506;2023-06-26T13:28:01;25.40;99.90
22319;DHT22;11327;52.334;9.506;2023-06-26T13:31:22;25.40;99.90
22319;DHT22;11327;52.334;9.506;2023-06-26T13:34:43;25.60;99.90
22319;DHT22;11327;52.334;9.506;2023-06-26T13:38:04;25.80;99.90
22319;DHT22;11327;52.334;9.506;2023-06-26T13:41:25;25.90;99.90
22319;DHT22;11327;52.334;9.506;2023-06-26T13:44:46;26.20;99.90
22319;DHT22;11327;52.334;9.506;2023-06-26T13:48:07;26.20;99.90
22319;DHT22;11327;52.334;9.506;2023-06-26T13:51:27;26.20;99.90
22319;DHT22;11327;52.334;9.506;2023-06-26T13:54:48;26.30;99.90
22319;DHT22;11327;52.334;9.506;2023-06-26T13:58:10;26.40;99.90
22319;DHT22;11327;52.334;9.506;2023-06-26T14:01:31;26.40;99.90
22319;DHT22;11327;52.334;9.506;2023-06-26T14:04:52;26.40;99.90
22319;DHT22;11327;52.334;9.506;2023-06-26T14:08:13;26.40;99.90
22319;DHT22;11327;52.334;9.506;2023-06-26T14:11:34;26.50;99.90
22319;DHT22;11327;52.334;9.506;2023-06-26T14:14:55;26.30;99.90
22319;DHT22;11327;52.334;9.506;2023-06-26T14:18:16;26.40;99.90
22319;DHT22;11327;52.334;9.506;2023-06-26T14:21:38;26.30;99.90
22319;DHT22;11327;52.334;9.506;2023-06-26T14:24:58;26.50;99.90
22319;DHT22;11327;52.334;9.506;2023-06-26T14:28:19;26.60;99.90
22319;DHT22;11327;52.334;9.506;2023-06-26T14:31:40;26.30;99.90
22319;DHT22;11327;52.334;9.506;2023-06-26T14:35:01;26.00;99.90
22319;DHT22;11327;52.334;9.506;2023-06-26T14:38:22;26.00;99.90
22319;DHT22;11327;52.334;9.506;2023-06-26T14:41:42;26.00;99.90
22319;DHT22;11327;52.334;9.506;2023-06-26T14:45:04;25.80;99.90
22319;DHT22;11327;52.334;9.506;2023-06-26T14:48:25;25.60;99.90
22319;DHT22;11327;52.334;9.506;2023-06-26T14:51:45;25.40;99.90
22319;DHT22;11327;52.334;9.506;2023-06-26T14:55:07;25.30;99.90
22319;DHT22;11327;52.334;9.506;2023-06-26T14:58:27;25.20;99.90
22319;DHT22;11327;52.334;9.506;2023-06-26T15:01:48;25.00;99.90
22319;DHT22;11327;52.334;9.506;2023-06-26T15:05:09;24.80;99.90
22319;DHT22;11327;52.334;9.506;2023-06-26T15:08:30;24.70;99.90
22319;DHT22;11327;52.334;9.506;2023-06-26T15:11:50;25.00;99.90
22319;DHT22;11327;52.334;9.506;2023-06-26T15:15:11;25.20;99.90
22319;DHT22;11327;52.334;9.506;2023-06-26T15:18:32;25.20;99.90
22319;DHT22;11327;52.334;9.506;2023-06-26T15:21:53;25.20;99.90
22319;DHT22;11327;52.334;9.506;2023-06-26T15:25:13;25.00;99.90
22319;DHT22;11327;52.334;9.506;2023-06-26T15:28:34;24.70;99.90
22319;DHT22;11327;52.334;9.506;2023-06-26T15:31:55;24.70;99.90
22319;DHT22;11327;52.334;9.506;2023-06-26T15:35:15;24.70;99.90
22319;DHT22;11327;52.334;9.506;2023-06-26T15:38:36;24.60;99.90
22319;DHT22;11327;52.334;9.506;2023-06-26T15:41:57;24.60;99.90
22319;DHT22;11327;52.334;9.506;2023-06-26T15:45:18;24.50;99.90
22319;DHT22;11327;52.334;9.506;2023-06-26T15:48:39;24.40;99.90
22319;DHT22;11327;52.334;9.506;2023-06-26T15:52:00;24.30;99.90
22319;DHT22;11327;52.334;9.506;2023-06-26T15:55:20;24.30;99.90
22319;DHT22;11327;52.334;9.506;2023-06-26T15:58:41;24.40;99.90
22319;DHT22;11327;52.334;9.506;2023-06-26T16:02:03;24.60;99.90
22319;DHT22;11327;52.334;9.506;2023-06-26T16:05:24;24.60;99.90
22319;DHT22;11327;52.334;9.506;2023-06-26T16:08:45;24.60;99.90
22319;DHT22;11327;52.334;9.506;2023-06-26T16:12:08;24.60;99.90
22319;DHT22;11327;52.334;9.506;2023-06-26T16:15:29;24.30;99.90
22319;DHT22;11327;52.334;9.506;2023-06-26T16:18:50;24.10;99.90
22319;DHT22;11327;52.334;9.506;2023-06-26T16:22:11;23.90;99.90
22319;DHT22;11327;52.334;9.506;2023-06-26T16:25:32;23.80;99.90
22319;DHT22;11327;52.334;9.506;2023-06-26T16:28:53;23.60;99.90
22319;DHT22;11327;52.334;9.506;2023-06-26T16:32:13;23.50;99.90
22319;DHT22;11327;52.334;9.506;2023-06-26T16:35:34;23.50;99.90
22319;DHT22;11327;52.334;9.506;2023-06-26T16:38:55;23.40;99.90
22319;DHT22;11327;52.334;9.506;2023-06-26T16:42:16;23.40;99.90
22319;DHT22;11327;52.334;9.506;2023-06-26T16:45:38;23.30;99.90
22319;DHT22;11327;52.334;9.506;2023-06-26T16:48:59;23.40;99.90
22319;DHT22;11327;52.334;9.506;2023-06-26T16:52:20;23.20;99.90
22319;DHT22;11327;52.334;9.506;2023-06-26T16:55:41;23.30;99.90
22319;DHT22;11327;52.334;9.506;2023-06-26T16:59:01;23.40;99.90
22319;DHT22;11327;52.334;9.506;2023-06-26T17:02:22;23.40;99.90
22319;DHT22;11327;52.334;9.506;2023-06-26T17:05:43;23.50;99.90
22319;DHT22;11327;52.334;9.506;2023-06-26T17:09:04;23.50;99.90
22319;DHT22;11327;52.334;9.506;2023-06-26T17:12:24;23.50;99.90
22319;DHT22;11327;52.334;9.506;2023-06-26T17:15:46;23.50;99.90
22319;DHT22;11327;52.334;9.506;2023-06-26T17:19:07;23.40;99.90
22319;DHT22;11327;52.334;9.506;2023-06-26T17:22:28;23.30;99.90
22319;DHT22;11327;52.334;9.506;2023-06-26T17:25:48;23.10;99.90
22319;DHT22;11327;52.334;9.506;2023-06-26T17:29:09;23.10;99.90
22319;DHT22;11327;52.334;9.506;2023-06-26T17:32:30;22.90;99.90
22319;DHT22;11327;52.334;9.506;2023-06-26T17:35:51;22.90;99.90
22319;DHT22;11327;52.334;9.506;2023-06-26T17:39:11;22.80;99.90
22319;DHT22;11327;52.334;9.506;2023-06-26T17:42:32;22.70;99.90
22319;DHT22;11327;52.334;9.506;2023-06-26T17:45:53;22.80;99.90
22319;DHT22;11327;52.334;9.506;2023-06-26T17:49:14;22.70;99.90
22319;DHT22;11327;52.334;9.506;2023-06-26T17:52:34;22.60;99.90
22319;DHT22;11327;52.334;9.506;2023-06-26T17:55:55;22.40;99.90
22319;DHT22;11327;52.334;9.506;2023-06-26T17:59:16;22.40;99.90
22319;DHT22;11327;52.334;9.506;2023-06-26T18:02:37;22.30;99.90
22319;DHT22;11327;52.334;9.506;2023-06-26T18:06:00;22.30;99.90
22319;DHT22;11327;52.334;9.506;2023-06-26T18:09:21;22.30;99.90
22319;DHT22;11327;52.334;9.506;2023-06-26T18:12:42;22.30;99.90
22319;DHT22;11327;52.334;9.506;2023-06-26T18:16:03;22.30;99.90
22319;DHT22;11327;52.334;9.506;2023-06-26T18:19:26;22.30;99.90
22319;DHT22;11327;52.334;9.506;2023-06-26T18:22:46;22.20;99.90
22319;DHT22;11327;52.334;9.506;2023-06-26T18:26:08;22.10;99.90
22319;DHT22;11327;52.334;9.506;2023-06-26T18:29:29;22.30;99.90
22319;DHT22;11327;52.334;9.506;2023-06-26T18:32:50;22.20;99.90
22319;DHT22;11327;52.334;9.506;2023-06-26T18:36:10;22.20;99.90
22319;DHT22;11327;52.334;9.506;2023-06-26T18:39:33;22.20;99.90
22319;DHT22;11327;52.334;9.506;2023-06-26T18:42:54;22.10;99.90
22319;DHT22;11327;52.334;9.506;2023-06-26T18:46:15;22.00;99.90
22319;DHT22;11327;52.334;9.506;2023-06-26T18:49:36;21.90;99.90
22319;DHT22;11327;52.334;9.506;2023-06-26T18:52:56;21.90;99.90
22319;DHT22;11327;52.334;9.506;2023-06-26T18:56:17;21.80;99.90
22319;DHT22;11327;52.334;9.506;2023-06-26T18:59:38;21.70;99.90
22319;DHT22;11327;52.334;9.506;2023-06-26T19:02:59;21.60;99.90
22319;DHT22;11327;52.334;9.506;2023-06-26T19:06:20;21.40;99.90
22319;DHT22;11327;52.334;9.506;2023-06-26T19:09:40;21.40;99.90
22319;DHT22;11327;52.334;9.506;2023-06-26T19:13:01;21.30;99.90
22319;DHT22;11327;52.334;9.506;2023-06-26T19:16:22;21.20;99.90
22319;DHT22;11327;52.334;9.506;2023-06-26T19:19:43;21.20;99.90
22319;DHT22;11327;52.334;9.506;2023-06-26T19:23:04;21.10;99.90
22319;DHT22;11327;52.334;9.506;2023-06-26T19:26:25;20.90;99.90
22319;DHT22;11327;52.334;9.506;2023-06-26T19:29:46;20.80;99.90
22319;DHT22;11327;52.334;9.506;2023-06-26T19:33:06;20.70;99.90
22319;DHT22;11327;52.334;9.506;2023-06-26T19:36:27;20.70;99.90
22319;DHT22;11327;52.334;9.506;2023-06-26T19:39:48;20.60;99.90
22319;DHT22;11327;52.334;9.506;2023-06-26T19:43:09;20.60;99.90
22319;DHT22;11327;52.334;9.506;2023-06-26T19:46:30;20.50;99.90
22319;DHT22;11327;52.334;9.506;2023-06-26T19:49:51;20.40;99.90
22319;DHT22;11327;52.334;9.506;2023-06-26T19:53:12;20.40;99.90
22319;DHT22;11327;52.334;9.506;2023-06-26T19:56:32;20.30;99.90
22319;DHT22;11327;52.334;9.506;2023-06-26T19:59:53;20.30;99.90
22319;DHT22;11327;52.334;9.506;2023-06-26T20:03:14;20.20;99.90
22319;DHT22;11327;52.334;9.506;2023-06-26T20:06:36;20.30;99.90
22319;DHT22;11327;52.334;9.506;2023-06-26T20:09:57;20.10;99.90
22319;DHT22;11327;52.334;9.506;2023-06-26T20:13:18;20.00;99.90
22319;DHT22;11327;52.334;9.506;2023-06-26T20:16:39;19.90;99.90
22319;DHT22;11327;52.334;9.506;2023-06-26T20:19:59;19.90;99.90
22319;DHT22;11327;52.334;9.506;2023-06-26T20:23:20;19.80;99.90
22319;DHT22;11327;52.334;9.506;2023-06-26T20:26:42;19.80;99.90
22319;DHT22;11327;52.334;9.506;2023-06-26T20:30:06;19.80;99.90
22319;DHT22;11327;52.334;9.506;2023-06-26T20:33:27;19.70;99.90
22319;DHT22;11327;52.334;9.506;2023-06-26T20:36:48;19.70;99.90
22319;DHT22;11327;52.334;9.506;2023-06-26T20:40:10;19.70;99.90
22319;DHT22;11327;52.334;9.506;2023-06-26T20:43:31;19.60;99.90
22319;DHT22;11327;52.334;9.506;2023-06-26T20:46:52;19.40;99.90
22319;DHT22;11327;52.334;9.506;2023-06-26T20:50:19;19.30;99.90
22319;DHT22;11327;52.334;9.506;2023-06-26T20:53:40;19.10;99.90
22319;DHT22;11327;52.334;9.506;2023-06-26T20:57:01;19.10;99.90
22319;DHT22;11327;52.334;9.506;2023-06-26T21:00:22;18.90;99.90
22319;DHT22;11327;52.334;9.506;2023-06-26T21:03:43;18.80;99.90
22319;DHT22;11327;52.334;9.506;2023-06-26T21:07:05;18.70;99.90
22319;DHT22;11327;52.334;9.506;2023-06-26T21:10:26;18.80;99.90
22319;DHT22;11327;52.334;9.506;2023-06-26T21:13:46;18.70;99.90
22319;DHT22;11327;52.334;9.506;2023-06-26T21:17:07;18.70;99.90